createdAt,value
2022-08-23T00:00:46.702Z,100032.63
2022-08-23T00:03:17.489Z,100035.81
2022-08-23T00:05:46.327Z,100038.19
2022-08-23T00:08:14.680Z,100032.06
2022-08-23T00:10:43.161Z,100027.69
2022-08-23T00:13:11.568Z,100035.63
2022-08-23T00:15:41.422Z,100038.06
2022-08-23T00:18:09.822Z,100025.25
2022-08-23T00:20:38.253Z,100023.94
2022-08-23T00:23:06.618Z,100022.03
2022-08-23T00:25:35.251Z,100013.47
2022-08-23T00:28:04.317Z,100015.63
2022-08-23T00:30:42.359Z,100012.63
2022-08-23T00:33:10.848Z,100009.03
2022-08-23T00:35:39.498Z,100015.25
2022-08-23T00:38:34.476Z,100013.00
2022-08-23T00:40:56.827Z,100009.78
2022-08-23T00:43:49.615Z,99999.47
2022-08-23T00:46:50.163Z,100015.06
2022-08-23T00:49:19.296Z,100006.56
2022-08-23T00:51:57.489Z,100009.78
2022-08-23T00:54:28.573Z,100003.75
2022-08-23T00:57:00.254Z,100001.84
2022-08-23T00:59:28.975Z,100005.25
2022-08-23T01:01:59.767Z,100019.38
2022-08-23T01:04:32.673Z,100017.88
2022-08-23T01:07:08.798Z,100017.31
2022-08-23T01:09:39.353Z,100023.16
2022-08-23T01:12:16.389Z,100018.66
2022-08-23T01:14:55.339Z,100021.16
2022-08-23T01:17:30.448Z,100019.28
2022-08-23T01:20:04.564Z,100016.84
2022-08-23T01:22:41.412Z,100014.56
2022-08-23T01:25:17.912Z,100020.69
2022-08-23T01:27:49.614Z,100024.25
2022-08-23T01:30:23.535Z,100021.63
2022-08-23T01:32:55.945Z,100018.50
2022-08-23T01:35:32.845Z,100016.34
2022-08-23T01:38:01.544Z,100019.66
2022-08-23T01:40:32.627Z,100026.16
2022-08-23T01:43:02.802Z,100030.19
2022-08-23T01:45:33.141Z,100026.88
2022-08-23T01:48:02.838Z,100021.19
2022-08-23T01:50:32.501Z,100015.34
2022-08-23T01:53:01.510Z,100014.00
2022-08-23T01:55:32.948Z,100013.41
2022-08-23T01:58:05.287Z,100011.81
2022-08-23T02:00:39.011Z,100014.72
2022-08-23T02:03:08.992Z,100017.59
2022-08-23T02:05:38.308Z,100009.97
2022-08-23T02:08:26.241Z,100002.31
2022-08-23T02:10:58.459Z,100010.28
2022-08-23T02:13:27.965Z,100009.97
2022-08-23T02:15:59.679Z,100012.69
2022-08-23T02:18:28.405Z,100012.19
2022-08-23T02:20:56.923Z,100016.44
2022-08-23T02:23:25.485Z,100014.06
2022-08-23T02:25:54.732Z,100020.34
2022-08-23T02:28:26.209Z,100023.25
2022-08-23T02:30:55.283Z,100021.56
2022-08-23T02:33:24.173Z,100032.63
2022-08-23T02:35:52.773Z,100034.16
2022-08-23T02:38:21.600Z,100028.03
2022-08-23T02:40:52.993Z,100030.50
2022-08-23T02:43:31.649Z,100028.22
2022-08-23T02:46:00.125Z,100032.22
2022-08-23T02:48:29.480Z,100036.53
2022-08-23T02:51:08.639Z,100036.72
2022-08-23T02:53:38.381Z,100031.13
2022-08-23T02:56:17.041Z,100029.41
2022-08-23T02:58:54.265Z,100037.41
2022-08-23T03:01:27.319Z,100025.31
2022-08-23T03:04:01.355Z,100026.50
2022-08-23T03:06:32.220Z,100024.31
2022-08-23T03:09:01.318Z,100026.00
2022-08-23T03:11:30.992Z,100029.41
2022-08-23T03:14:02.104Z,100041.31
2022-08-23T03:16:32.133Z,100033.78
2022-08-23T03:19:02.234Z,100033.47
2022-08-23T03:21:31.292Z,100039.97
2022-08-23T03:24:02.663Z,100035.47
2022-08-23T03:26:36.049Z,100038.97
2022-08-23T03:29:06.265Z,100038.91
2022-08-23T03:31:48.252Z,100040.31
2022-08-23T03:34:16.654Z,100032.47
2022-08-23T03:36:45.371Z,100038.22
2022-08-23T03:39:14.253Z,100045.66
2022-08-23T03:41:42.719Z,100048.31
2022-08-23T03:44:12.603Z,100044.53
2022-08-23T03:46:43.874Z,100046.84
2022-08-23T03:49:12.712Z,100052.19
2022-08-23T03:51:46.760Z,100052.44
2022-08-23T03:54:15.373Z,100053.94
2022-08-23T03:56:55.740Z,100053.22
2022-08-23T03:59:27.038Z,100055.88
2022-08-23T04:01:56.434Z,100053.81
2022-08-23T04:04:25.102Z,100055.13
2022-08-23T04:07:12.222Z,100053.88
2022-08-23T04:09:40.947Z,100063.41
2022-08-23T04:12:17.661Z,100060.56
2022-08-23T04:14:48.226Z,100071.09
2022-08-23T04:17:18.568Z,100073.41
2022-08-23T04:19:47.460Z,100063.56
2022-08-23T04:22:18.855Z,100074.28
2022-08-23T04:24:48.090Z,100077.28
2022-08-23T04:27:17.924Z,100075.59
2022-08-23T04:29:50.376Z,100082.41
2022-08-23T04:32:28.490Z,100088.75
2022-08-23T04:34:59.411Z,100087.97
2022-08-23T04:37:28.579Z,100090.88
2022-08-23T04:40:15.528Z,100088.31
2022-08-23T04:42:44.530Z,100092.31
2022-08-23T04:45:15.184Z,100100.81
2022-08-23T04:47:46.841Z,100099.69
2022-08-23T04:50:15.300Z,100096.44
2022-08-23T04:53:09.849Z,100095.44
2022-08-23T04:55:45.874Z,100099.84
2022-08-23T04:58:14.353Z,100098.31
2022-08-23T05:00:51.651Z,100105.41
2022-08-23T05:03:24.932Z,100101.91
2022-08-23T05:05:54.375Z,100102.81
2022-08-23T05:08:29.134Z,100105.56
2022-08-23T05:11:01.205Z,100109.97
2022-08-23T05:13:30.321Z,100110.41
2022-08-23T05:16:02.658Z,100111.41
2022-08-23T05:18:35.714Z,100113.19
2022-08-23T05:21:04.943Z,100110.88
2022-08-23T05:23:34.042Z,100115.78
2022-08-23T05:26:06.138Z,100129.47
2022-08-23T05:28:45.424Z,100121.63
2022-08-23T05:31:20.530Z,100133.34
2022-08-23T05:33:54.803Z,100129.78
2022-08-23T05:36:33.248Z,100132.44
2022-08-23T05:39:02.300Z,100147.28
2022-08-23T05:41:38.274Z,100140.16
2022-08-23T05:44:10.453Z,100153.81
2022-08-23T05:46:45.387Z,100156.50
2022-08-23T05:49:29.247Z,100152.00
2022-08-23T05:51:57.931Z,100155.59
2022-08-23T05:54:29.689Z,100162.47
2022-08-23T05:57:22.732Z,100159.91
2022-08-23T05:59:51.179Z,100161.38
2022-08-23T06:02:20.992Z,100166.19
2022-08-23T06:04:50.990Z,100165.75
2022-08-23T06:07:21.787Z,100171.09
2022-08-23T06:09:50.264Z,100177.03
2022-08-23T06:12:18.849Z,100171.41
2022-08-23T06:14:47.266Z,100175.88
2022-08-23T06:17:15.977Z,100171.84
2022-08-23T06:19:45.826Z,100170.03
2022-08-23T06:22:23.424Z,100171.47
2022-08-23T06:24:51.971Z,100178.75
2022-08-23T06:27:20.448Z,100169.81
2022-08-23T06:29:50.592Z,100168.47
2022-08-23T06:32:39.003Z,100170.22
2022-08-23T06:35:38.743Z,100174.69
2022-08-23T06:38:14.210Z,100174.34
2022-08-23T06:41:03.817Z,100170.53
2022-08-23T06:43:43.119Z,100176.63
2022-08-23T06:46:33.064Z,100177.59
2022-08-23T06:49:05.157Z,100179.50
2022-08-23T06:51:38.077Z,100171.28
2022-08-23T06:54:19.474Z,100178.69
2022-08-23T06:57:08.273Z,100177.91
2022-08-23T06:59:52.179Z,100184.56
2022-08-23T07:02:38.806Z,100182.59
2022-08-23T07:05:26.329Z,100177.63
2022-08-23T07:08:11.529Z,100184.22
2022-08-23T07:10:40.079Z,100195.09
2022-08-23T07:13:08.657Z,100189.00
2022-08-23T07:15:37.140Z,100187.00
2022-08-23T07:18:07.489Z,100189.09
2022-08-23T07:20:41.855Z,100174.41
2022-08-23T07:23:11.890Z,100189.06
2022-08-23T07:25:41.548Z,100187.84
2022-08-23T07:28:12.880Z,100191.25
2022-08-23T07:30:45.414Z,100191.72
2022-08-23T07:33:15.271Z,100188.84
2022-08-23T07:36:03.398Z,100195.38
2022-08-23T07:38:35.107Z,100192.81
2022-08-23T07:41:04.722Z,100187.81
2022-08-23T07:43:34.284Z,100197.22
2022-08-23T07:46:04.359Z,100189.56
2022-08-23T07:48:53.012Z,100189.31
2022-08-23T07:51:26.405Z,100197.47
2022-08-23T07:53:56.410Z,100191.47
2022-08-23T07:56:25.757Z,100197.34
2022-08-23T07:59:02.458Z,100190.38
2022-08-23T08:01:46.420Z,100196.63
2022-08-23T08:04:15.095Z,100193.53
2022-08-23T08:07:04.723Z,100197.91
2022-08-23T08:09:41.628Z,100194.47
2022-08-23T08:12:11.154Z,100205.50
2022-08-23T08:14:42.219Z,100205.41
2022-08-23T08:17:11.904Z,100210.63
2022-08-23T08:20:10.891Z,100204.31
2022-08-23T08:22:59.179Z,100200.47
2022-08-23T08:26:02.420Z,100216.09
2022-08-23T08:28:31.965Z,100209.22
2022-08-23T08:31:02.182Z,100209.06
2022-08-23T08:33:34.374Z,100208.59
2022-08-23T08:36:05.105Z,100215.34
2022-08-23T08:38:50.344Z,100213.44
2022-08-23T08:41:46.610Z,100209.13
2022-08-23T08:44:33.154Z,100218.97
2022-08-23T08:47:03.467Z,100219.81
2022-08-23T08:49:41.529Z,100218.16
2022-08-23T08:52:18.785Z,100223.66
2022-08-23T08:54:53.285Z,100228.09
2022-08-23T08:57:27.536Z,100225.88
2022-08-23T09:00:03.011Z,100219.88
2022-08-23T09:02:36.047Z,100227.66
2022-08-23T09:05:13.293Z,100229.25
2022-08-23T09:07:57.982Z,100226.88
2022-08-23T09:10:59.898Z,100219.28
2022-08-23T09:13:59.578Z,100223.25
2022-08-23T09:16:49.667Z,100217.59
2022-08-23T09:19:20.209Z,100223.09
2022-08-23T09:21:57.178Z,100221.06
2022-08-23T09:24:27.272Z,100214.97
2022-08-23T09:27:04.676Z,100208.34
2022-08-23T09:29:37.797Z,100214.19
2022-08-23T09:32:27.307Z,100205.31
2022-08-23T09:35:11.799Z,100208.59
2022-08-23T09:37:57.403Z,100207.28
2022-08-23T09:40:41.172Z,100208.31
2022-08-23T09:43:20.124Z,100206.94
2022-08-23T09:46:01.352Z,100207.81
2022-08-23T09:48:43.215Z,100200.25
2022-08-23T09:51:25.222Z,100198.25
2022-08-23T09:54:05.923Z,100204.44
2022-08-23T09:56:39.674Z,100204.97
2022-08-23T09:59:34.402Z,100199.63
2022-08-23T10:02:19.610Z,100197.63
2022-08-23T10:05:00.808Z,100191.50
2022-08-23T10:07:40.399Z,100199.63
2022-08-23T10:10:28.022Z,100193.75
2022-08-23T10:13:00.857Z,100194.81
2022-08-23T10:15:45.095Z,100192.81
2022-08-23T10:18:27.870Z,100184.16
2022-08-23T10:21:06.219Z,100183.41
2022-08-23T10:24:03.300Z,100180.09
2022-08-23T10:26:36.187Z,100181.59
2022-08-23T10:29:34.893Z,100181.28
2022-08-23T10:32:16.406Z,100182.47
2022-08-23T10:35:16.078Z,100178.72
2022-08-23T10:37:58.836Z,100177.88
2022-08-23T10:40:31.496Z,100177.56
2022-08-23T10:43:16.745Z,100174.13
2022-08-23T10:45:48.307Z,100174.13
2022-08-23T10:48:33.869Z,100174.97
2022-08-23T10:51:11.955Z,100164.59
2022-08-23T10:53:46.816Z,100171.09
2022-08-23T10:56:20.801Z,100169.50
2022-08-23T10:58:58.709Z,100162.69
2022-08-23T11:01:42.775Z,100169.22
2022-08-23T11:04:25.050Z,100161.13
2022-08-23T11:07:19.502Z,100154.50
2022-08-23T11:09:54.168Z,100163.16
2022-08-23T11:12:29.861Z,100156.78
2022-08-23T11:15:20.634Z,100153.75
2022-08-23T11:18:05.573Z,100153.38
2022-08-23T11:21:02.841Z,100145.59
2022-08-23T11:23:51.686Z,100142.56
2022-08-23T11:27:06.778Z,100147.66
2022-08-23T11:29:43.551Z,100134.63
2022-08-23T11:32:48.461Z,100142.59
2022-08-23T11:35:44.046Z,100134.41
2022-08-23T11:38:15.933Z,100141.81
2022-08-23T11:41:00.989Z,100145.97
2022-08-23T11:43:39.006Z,100138.75
2022-08-23T11:46:34.831Z,100135.56
2022-08-23T11:49:54.517Z,100135.72
2022-08-23T11:53:08.260Z,100128.25
2022-08-23T11:56:02.450Z,100126.44
2022-08-23T11:58:57.111Z,100127.22
2022-08-23T12:01:33.710Z,100125.38
2022-08-23T12:04:10.517Z,100135.63
2022-08-23T12:06:50.661Z,100126.84
2022-08-23T12:09:53.816Z,100130.50
2022-08-23T12:12:40.021Z,100126.47
2022-08-23T12:15:14.264Z,100114.75
2022-08-23T12:18:13.536Z,100124.84
2022-08-23T12:20:43.301Z,100124.97
2022-08-23T12:23:22.174Z,100117.06
2022-08-23T12:26:04.128Z,100110.13
2022-08-23T12:28:48.103Z,100110.84
2022-08-23T12:31:23.782Z,100114.88
2022-08-23T12:34:27.605Z,100115.13
2022-08-23T12:37:09.583Z,100108.91
2022-08-23T12:39:41.697Z,100105.75
2022-08-23T12:42:15.846Z,100103.31
2022-08-23T12:44:48.460Z,100106.03
2022-08-23T12:47:20.191Z,100110.31
2022-08-23T12:49:58.950Z,100106.81
2022-08-23T12:52:30.063Z,100109.25
2022-08-23T12:54:59.212Z,100101.41
2022-08-23T12:57:37.832Z,100102.84
2022-08-23T13:00:21.884Z,100108.16
2022-08-23T13:02:58.386Z,100097.16
2022-08-23T13:05:39.246Z,100098.28
2022-08-23T13:08:12.800Z,100095.38
2022-08-23T13:10:43.620Z,100095.75
2022-08-23T13:13:14.969Z,100089.19
2022-08-23T13:15:56.014Z,100095.19
2022-08-23T13:18:27.766Z,100091.50
2022-08-23T13:21:31.981Z,100095.78
2022-08-23T13:24:38.570Z,100099.81
2022-08-23T13:27:27.152Z,100080.00
2022-08-23T13:29:59.334Z,100092.97
2022-08-23T13:32:38.997Z,100088.47
2022-08-23T13:35:31.607Z,100082.66
2022-08-23T13:38:20.891Z,100083.09
2022-08-23T13:41:03.506Z,100081.66
2022-08-23T13:43:37.895Z,100078.34
2022-08-23T13:46:19.448Z,100074.81
2022-08-23T13:48:59.863Z,100072.44
2022-08-23T13:51:32.382Z,100079.75
2022-08-23T13:54:05.120Z,100070.72
2022-08-23T13:56:39.665Z,100066.22
2022-08-23T13:59:31.114Z,100062.84
2022-08-23T14:02:02.285Z,100068.34
2022-08-23T14:04:32.802Z,100071.00
2022-08-23T14:07:01.372Z,100060.13
2022-08-23T14:09:30.021Z,100063.09
2022-08-23T14:12:03.876Z,100069.88
2022-08-23T14:14:35.230Z,100064.22
2022-08-23T14:17:04.318Z,100061.97
2022-08-23T14:22:22.911Z,100054.19
2022-08-23T14:24:51.297Z,100060.84
2022-08-23T14:27:19.777Z,100058.13
2022-08-23T14:29:48.210Z,100056.34
2022-08-23T14:32:16.637Z,100057.28
2022-08-23T14:34:46.432Z,100052.50
2022-08-23T14:38:02.965Z,100061.06
2022-08-23T14:40:03.543Z,100058.41
2022-08-23T14:42:32.520Z,100058.06
2022-08-23T14:45:02.009Z,100062.09
2022-08-23T14:47:30.468Z,100058.75
2022-08-23T14:50:00.402Z,100059.03
2022-08-23T14:52:29.173Z,100051.66
2022-08-23T14:54:57.667Z,100053.19
2022-08-23T14:57:26.301Z,100052.13
2022-08-23T14:59:56.485Z,100050.59
2022-08-23T15:02:27.846Z,100053.13
2022-08-23T15:04:57.090Z,100047.16
2022-08-23T15:07:26.892Z,100044.53
2022-08-23T15:09:55.837Z,100053.03
2022-08-23T15:15:16.754Z,100043.63
2022-08-23T15:17:52.970Z,100041.88
2022-08-23T15:20:23.376Z,100043.75
2022-08-23T15:22:55.675Z,100042.31
2022-08-23T15:25:25.450Z,100043.44
2022-08-23T15:27:54.283Z,100039.75
2022-08-23T15:30:24.736Z,100048.00
2022-08-23T15:33:02.465Z,100037.50
2022-08-23T15:35:40.502Z,100038.34
2022-08-23T15:38:11.325Z,100033.44
2022-08-23T15:40:39.960Z,100034.66
2022-08-23T15:43:08.657Z,100026.84
2022-08-23T15:45:37.855Z,100035.00
2022-08-23T15:48:22.988Z,100026.28
2022-08-23T15:50:52.190Z,100027.28
2022-08-23T15:53:23.495Z,100023.28
2022-08-23T15:55:53.150Z,100024.63
2022-08-23T15:58:24.931Z,100039.09
2022-08-23T16:00:54.796Z,100033.47
2022-08-23T16:03:24.003Z,100031.91
2022-08-23T16:05:55.062Z,100030.63
2022-08-23T16:08:29.545Z,100034.66
2022-08-23T16:10:59.591Z,100036.59
2022-08-23T16:13:28.612Z,100029.06
2022-08-23T16:15:57.574Z,100036.13
2022-08-23T16:18:26.457Z,100032.75
2022-08-23T16:20:54.840Z,100035.53
2022-08-23T16:23:26.443Z,100028.91
2022-08-23T16:25:59.092Z,100029.34
2022-08-23T16:28:29.834Z,100023.41
2022-08-23T16:30:58.392Z,100024.06
2022-08-23T16:33:27.033Z,100026.78
2022-08-23T16:35:55.523Z,100028.38
2022-08-23T16:38:25.401Z,100027.41
2022-08-23T16:40:53.861Z,100029.34
2022-08-23T16:43:22.418Z,100032.03
2022-08-23T16:45:51.151Z,100031.31
2022-08-23T16:48:19.947Z,100025.63
2022-08-23T16:50:48.630Z,100032.16
2022-08-23T16:53:17.621Z,100029.84
2022-08-23T16:55:47.454Z,100026.53
2022-08-23T16:58:16.345Z,100039.22
2022-08-23T17:00:45.044Z,100041.31
2022-08-23T17:03:15.158Z,100035.28
2022-08-23T17:05:43.633Z,100043.28
2022-08-23T17:08:12.055Z,100033.25
2022-08-23T17:10:40.927Z,100033.44
2022-08-23T17:13:12.316Z,100034.56
2022-08-23T17:15:40.882Z,100049.00
2022-08-23T17:18:09.973Z,100038.97
2022-08-23T17:20:40.324Z,100040.00
2022-08-23T17:23:09.525Z,100040.91
2022-08-23T17:25:41.642Z,100044.41
2022-08-23T17:28:11.801Z,100053.19
2022-08-23T17:30:40.448Z,100045.19
2022-08-23T17:33:09.467Z,100056.81
2022-08-23T17:35:38.502Z,100052.72
2022-08-23T17:38:08.456Z,100060.34
2022-08-23T17:40:40.427Z,100057.22
2022-08-23T17:43:12.455Z,100057.88
2022-08-23T17:45:45.026Z,100065.09
2022-08-23T17:48:15.243Z,100061.69
2022-08-23T17:50:44.808Z,100065.81
2022-08-23T17:53:14.522Z,100070.47
2022-08-23T17:55:44.246Z,100066.63
2022-08-23T17:58:15.149Z,100075.09
2022-08-23T18:00:45.188Z,100077.16
2022-08-23T18:03:13.751Z,100074.88
2022-08-23T18:05:43.003Z,100076.09
2022-08-23T18:08:11.731Z,100076.34
2022-08-23T18:10:40.672Z,100068.88
2022-08-23T18:13:09.144Z,100081.44
2022-08-23T18:15:39.226Z,100078.19
2022-08-23T18:18:08.194Z,100078.53
2022-08-23T18:20:37.138Z,100080.25
2022-08-23T18:23:05.885Z,100087.75
2022-08-23T18:25:34.471Z,100094.78
2022-08-23T18:28:09.298Z,100096.94
2022-08-23T18:30:47.344Z,100095.50
2022-08-23T18:33:18.522Z,100106.16
2022-08-23T18:35:47.971Z,100100.22
2022-08-23T18:38:16.835Z,100113.63
2022-08-23T18:40:48.770Z,100108.91
2022-08-23T18:43:19.989Z,100112.06
2022-08-23T18:45:53.784Z,100117.78
2022-08-23T18:48:23.350Z,100114.97
2022-08-23T18:50:52.163Z,100117.38
2022-08-23T18:53:22.105Z,100120.69
2022-08-23T18:55:50.969Z,100121.91
2022-08-23T18:58:20.993Z,100129.63
2022-08-23T19:00:51.866Z,100132.94
2022-08-23T19:03:20.510Z,100130.38
2022-08-23T19:05:49.314Z,100128.81
2022-08-23T19:08:18.785Z,100132.56
2022-08-23T19:10:47.822Z,100137.38
2022-08-23T19:13:16.795Z,100143.19
2022-08-23T19:15:45.304Z,100143.09
2022-08-23T19:18:16.111Z,100141.03
2022-08-23T19:20:45.317Z,100149.75
2022-08-23T19:23:13.908Z,100154.34
2022-08-23T19:25:45.328Z,100155.09
2022-08-23T19:28:14.637Z,100158.22
2022-08-23T19:30:43.694Z,100155.91
2022-08-23T19:33:12.143Z,100151.09
2022-08-23T19:35:42.405Z,100159.41
2022-08-23T19:38:11.622Z,100166.91
2022-08-23T19:40:40.070Z,100164.38
2022-08-23T19:43:09.170Z,100160.38
2022-08-23T19:45:41.035Z,100159.75
2022-08-23T19:48:09.994Z,100158.16
2022-08-23T19:50:41.620Z,100165.66
2022-08-23T19:53:10.316Z,100157.06
2022-08-23T19:55:41.775Z,100163.47
2022-08-23T19:58:10.640Z,100166.56
2022-08-23T20:00:39.503Z,100165.88
2022-08-23T20:03:08.038Z,100169.25
2022-08-23T20:05:36.464Z,100173.84
2022-08-23T20:08:07.178Z,100168.78
2022-08-23T20:10:35.699Z,100174.09
2022-08-23T20:13:04.339Z,100175.25
2022-08-23T20:15:32.930Z,100178.91
2022-08-23T20:18:01.374Z,100185.28
2022-08-23T20:20:29.911Z,100186.50
2022-08-23T20:23:15.850Z,100185.88
2022-08-23T20:25:45.857Z,100191.41
2022-08-23T20:28:14.338Z,100189.22
2022-08-23T20:30:42.982Z,100193.81
2022-08-23T20:33:11.468Z,100186.06
2022-08-23T20:35:39.852Z,100188.72
2022-08-23T20:38:08.230Z,100189.91
2022-08-23T20:40:51.549Z,100189.41
2022-08-23T20:43:22.530Z,100188.13
2022-08-23T20:45:50.988Z,100184.97
2022-08-23T20:48:19.850Z,100193.19
2022-08-23T20:50:48.395Z,100191.69
2022-08-23T20:53:16.877Z,100198.53
2022-08-23T20:55:45.410Z,100196.19
2022-08-23T20:58:15.209Z,100192.59
2022-08-23T21:00:43.728Z,100193.78
2022-08-23T21:03:12.140Z,100198.38
2022-08-23T21:05:40.572Z,100203.88
2022-08-23T21:08:13.083Z,100202.63
2022-08-23T21:10:41.988Z,100211.81
2022-08-23T21:13:15.195Z,100204.91
2022-08-23T21:15:43.831Z,100206.91
2022-08-23T21:18:15.625Z,100209.06
2022-08-23T21:20:44.324Z,100216.16
2022-08-23T21:23:13.255Z,100217.75
2022-08-23T21:25:42.545Z,100213.94
2022-08-23T21:28:11.816Z,100225.72
2022-08-23T21:30:42.931Z,100218.41
2022-08-23T21:33:11.862Z,100227.22
2022-08-23T21:35:40.360Z,100226.91
2022-08-23T21:38:09.242Z,100229.88
2022-08-23T21:40:37.880Z,100233.34
2022-08-23T21:43:06.529Z,100233.66
2022-08-23T21:45:35.014Z,100242.38
2022-08-23T21:48:05.670Z,100239.56
2022-08-23T21:50:34.438Z,100241.31
2022-08-23T21:53:03.795Z,100241.25
2022-08-23T21:55:36.043Z,100240.41
2022-08-23T21:58:04.822Z,100244.88
2022-08-23T22:00:34.500Z,100248.44
2022-08-23T22:03:04.910Z,100235.47
2022-08-23T22:05:34.029Z,100232.31
2022-08-23T22:08:02.616Z,100240.97
2022-08-23T22:10:31.060Z,100243.63
2022-08-23T22:13:00.637Z,100247.13
2022-08-23T22:15:29.233Z,100246.28
2022-08-23T22:17:57.659Z,100249.06
2022-08-23T22:20:27.814Z,100243.06
2022-08-23T22:22:56.436Z,100249.00
2022-08-23T22:25:25.024Z,100243.91
2022-08-23T22:27:53.844Z,100243.34
2022-08-23T22:30:22.998Z,100243.47
2022-08-23T22:32:51.419Z,100246.59
2022-08-23T22:35:20.135Z,100245.75
2022-08-23T22:38:12.321Z,100236.59
2022-08-23T22:40:39.284Z,100244.91
2022-08-23T22:43:08.039Z,100242.41
2022-08-23T22:45:36.485Z,100246.00
2022-08-23T22:48:05.313Z,100233.56
2022-08-23T22:50:33.721Z,100236.59
2022-08-23T22:53:03.498Z,100241.91
2022-08-23T22:55:32.002Z,100245.00
2022-08-23T22:58:00.463Z,100239.34
2022-08-23T23:00:29.113Z,100247.97
2022-08-23T23:02:59.777Z,100255.81
2022-08-23T23:05:29.151Z,100240.50
2022-08-23T23:08:15.210Z,100246.94
2022-08-23T23:10:45.133Z,100244.88
2022-08-23T23:13:13.581Z,100257.63
2022-08-23T23:15:42.009Z,100257.81
2022-08-23T23:18:10.434Z,100254.59
2022-08-23T23:20:39.136Z,100256.47
2022-08-23T23:23:08.500Z,100263.69
2022-08-23T23:25:37.634Z,100259.31
2022-08-23T23:28:07.571Z,100263.31
2022-08-23T23:30:37.276Z,100258.78
2022-08-23T23:33:06.136Z,100272.31
2022-08-23T23:35:36.080Z,100271.47
2022-08-23T23:38:05.245Z,100275.88
2022-08-23T23:40:34.892Z,100278.72
2022-08-23T23:43:03.346Z,100293.00
2022-08-23T23:45:33.786Z,100291.50
2022-08-23T23:48:02.323Z,100287.31
2022-08-23T23:50:32.436Z,100293.56
2022-08-23T23:53:00.811Z,100286.22
2022-08-23T23:55:29.443Z,100287.16
2022-08-23T23:57:58.643Z,100282.22
